createdAt,value
2018-01-08T04:30:12.589Z,29.95
2018-01-08T04:32:40.276Z,29.90
2018-01-08T04:35:07.853Z,28.20
2018-01-08T04:37:36.278Z,29.17
2018-01-08T04:40:03.902Z,29.27
2018-01-08T04:42:31.481Z,27.23
2018-01-08T04:44:59.057Z,28.50
2018-01-08T04:47:26.685Z,29.08
2018-01-08T04:49:54.266Z,31.40
2018-01-08T04:52:21.845Z,29.90
2018-01-08T04:54:50.262Z,32.63
2018-01-08T04:57:18.609Z,27.30
2018-01-08T04:59:46.189Z,29.48
2018-01-08T05:02:14.556Z,26.73
2018-01-08T05:04:42.137Z,30.62
2018-01-08T05:07:10.542Z,28.75
2018-01-08T05:09:38.113Z,28.77
2018-01-08T05:12:05.699Z,28.92
2018-01-08T05:14:33.357Z,29.12
2018-01-08T05:17:00.937Z,30.17
2018-01-08T05:19:29.286Z,30.50
2018-01-08T05:21:56.909Z,28.02
2018-01-08T05:24:24.488Z,28.40
2018-01-08T05:26:52.069Z,27.50
2018-01-08T05:29:19.692Z,28.17
2018-01-08T05:31:47.269Z,31.00
2018-01-08T05:34:14.881Z,29.67
2018-01-08T05:36:43.252Z,28.80
2018-01-08T05:39:11.589Z,30.60
2018-01-08T05:41:39.230Z,30.08
2018-01-08T05:44:06.813Z,29.70
2018-01-08T05:46:34.386Z,29.48
2018-01-08T05:49:02.011Z,30.62
2018-01-08T05:51:29.601Z,29.02
2018-01-08T05:53:57.177Z,29.37
2018-01-08T05:56:25.556Z,28.25
2018-01-08T05:58:53.908Z,31.17
2018-01-08T06:01:21.485Z,29.90
2018-01-08T06:03:49.081Z,28.50
2018-01-08T06:06:16.661Z,27.90
2018-01-08T06:08:44.260Z,27.55
2018-01-08T06:11:11.836Z,28.80
2018-01-08T06:13:40.180Z,28.90
2018-01-08T06:16:08.568Z,28.58
2018-01-08T06:18:36.150Z,29.75
2018-01-08T06:21:04.504Z,27.67
2018-01-08T06:23:32.109Z,28.17
2018-01-08T06:25:59.693Z,26.60
2018-01-08T06:28:27.337Z,25.77
2018-01-08T06:30:54.949Z,28.58
2018-01-08T06:33:23.297Z,28.10
2018-01-08T06:35:50.926Z,27.55
2018-01-08T06:38:18.509Z,26.20
2018-01-08T06:40:46.090Z,25.65
2018-01-08T06:43:13.708Z,28.15
2018-01-08T06:45:41.300Z,24.98
2018-01-08T06:48:08.882Z,28.05
2018-01-08T06:50:37.279Z,26.50
2018-01-08T06:53:04.870Z,25.02
2018-01-08T06:55:32.453Z,27.80
2018-01-08T06:58:00.087Z,24.90
2018-01-08T07:00:27.828Z,27.73
2018-01-08T07:02:55.408Z,27.33
2018-01-08T07:05:23.041Z,26.70
2018-01-08T07:07:50.616Z,23.90
2018-01-08T07:10:18.189Z,24.75
2018-01-08T07:12:45.792Z,23.48
2018-01-08T07:15:13.369Z,24.75
2018-01-08T07:17:41.719Z,23.27
2018-01-08T07:20:09.338Z,26.42
2018-01-08T07:22:36.917Z,21.17
2018-01-08T07:25:04.496Z,24.67
2018-01-08T07:27:32.104Z,22.87
2018-01-08T07:29:59.689Z,21.70
2018-01-08T07:32:27.310Z,22.35
2018-01-08T07:34:54.889Z,22.98
2018-01-08T07:37:22.465Z,23.45
2018-01-08T07:39:50.086Z,20.25
2018-01-08T07:42:17.670Z,25.05
2018-01-08T07:44:45.245Z,22.80
2018-01-08T07:47:12.891Z,22.50
2018-01-08T07:49:40.477Z,23.35
2018-01-08T07:52:08.085Z,22.42
2018-01-08T07:54:35.720Z,23.67
2018-01-08T07:57:03.279Z,23.12
2018-01-08T07:59:31.857Z,24.12
2018-01-08T08:02:00.206Z,23.58
2018-01-08T08:04:27.786Z,23.05
2018-01-08T08:06:55.417Z,22.45
2018-01-08T08:09:22.992Z,23.85
2018-01-08T08:11:50.565Z,23.70
2018-01-08T08:14:18.193Z,24.75
2018-01-08T08:16:45.769Z,25.10
2018-01-08T08:19:14.850Z,24.20
2018-01-08T08:21:42.452Z,24.00
2018-01-08T08:24:10.794Z,24.42
2018-01-08T08:26:38.376Z,24.17
2018-01-08T08:29:06.744Z,25.15
2018-01-08T08:31:34.329Z,24.02
2018-01-08T08:34:01.902Z,26.83
2018-01-08T08:36:29.516Z,25.50
2018-01-08T08:38:57.093Z,27.55
2018-01-08T08:41:25.441Z,26.12
2018-01-08T08:43:53.070Z,26.60
2018-01-08T08:46:20.645Z,26.17
2018-01-08T08:48:48.225Z,27.90
2018-01-08T08:51:15.861Z,25.85
2018-01-08T08:53:43.439Z,26.15
2018-01-08T08:56:11.020Z,27.70
2018-01-08T08:58:39.415Z,26.02
2018-01-08T09:01:06.993Z,25.20
2018-01-08T09:03:34.584Z,24.65
2018-01-08T09:06:02.223Z,26.90
2018-01-08T09:08:29.801Z,25.55
2018-01-08T09:10:57.385Z,24.55
2018-01-08T09:13:25.005Z,24.40
2018-01-08T09:15:52.585Z,23.83
2018-01-08T09:18:20.174Z,24.73
2018-01-08T09:20:48.557Z,26.02
2018-01-08T09:23:16.898Z,26.75
2018-01-08T09:25:44.477Z,25.33
2018-01-08T09:28:12.082Z,26.20
2018-01-08T09:30:39.665Z,25.73
2018-01-08T09:33:07.260Z,26.08
2018-01-08T09:35:35.609Z,23.70
2018-01-08T09:38:03.228Z,23.40
2018-01-08T09:40:30.853Z,22.77
2018-01-08T09:42:59.198Z,21.27
2018-01-08T09:45:26.777Z,23.90
2018-01-08T09:47:55.904Z,24.87
2018-01-08T09:50:23.482Z,23.17
2018-01-08T09:52:51.060Z,23.12
2018-01-08T09:55:18.689Z,23.58
2018-01-08T09:57:46.273Z,22.52
2018-01-08T10:00:13.900Z,22.92
2018-01-08T10:02:53.625Z,22.70
2018-01-08T10:05:33.809Z,23.98
2018-01-08T10:08:13.417Z,23.20
2018-01-08T10:10:53.589Z,21.60
2018-01-08T10:13:33.245Z,22.02
2018-01-08T10:16:12.717Z,21.67
2018-01-08T10:18:39.853Z,22.35
2018-01-08T10:21:07.433Z,22.20
2018-01-08T10:23:35.013Z,22.10
2018-01-08T10:26:03.389Z,23.58
2018-01-08T10:28:31.737Z,22.20
2018-01-08T10:30:59.325Z,23.58
2018-01-08T10:33:27.706Z,22.50
2018-01-08T10:35:56.052Z,22.65
2018-01-08T10:38:23.639Z,23.85
2018-01-08T10:40:52.134Z,22.50
2018-01-08T10:43:26.217Z,24.80
2018-01-08T10:46:00.232Z,22.42
2018-01-08T10:48:33.472Z,22.15
2018-01-08T10:51:06.837Z,21.50
2018-01-08T10:53:37.068Z,21.77
2018-01-08T10:56:04.657Z,19.65
2018-01-08T10:58:32.262Z,21.37
2018-01-08T11:01:06.229Z,21.48
2018-01-08T11:03:39.430Z,20.00
2018-01-08T11:06:07.077Z,19.80
2018-01-08T11:08:34.661Z,20.10
2018-01-08T11:11:02.277Z,20.70
2018-01-08T11:13:29.894Z,20.67
2018-01-08T11:15:57.469Z,21.00
2018-01-08T11:18:25.849Z,22.05
2018-01-08T11:20:54.194Z,19.80
2018-01-08T11:23:21.778Z,21.10
2018-01-08T11:25:50.178Z,20.30
2018-01-08T11:28:17.760Z,20.23
2018-01-08T11:30:45.336Z,20.10
2018-01-08T11:33:12.963Z,18.55
2018-01-08T11:35:40.542Z,19.73
2018-01-08T11:38:08.124Z,19.02
2018-01-08T11:40:35.732Z,18.52
2018-01-08T11:43:03.313Z,19.80
2018-01-08T11:45:30.944Z,18.00
2018-01-08T11:47:58.569Z,18.62
2018-01-08T11:50:26.144Z,18.17
2018-01-08T11:52:54.495Z,17.65
2018-01-08T11:55:22.097Z,18.12
2018-01-08T11:57:49.679Z,18.35
2018-01-08T12:00:17.309Z,17.85
2018-01-08T12:02:45.666Z,18.42
2018-01-08T12:05:13.245Z,17.17
2018-01-08T12:07:41.773Z,18.40
2018-01-08T12:10:09.362Z,17.42
2018-01-08T12:12:36.969Z,17.10
2018-01-08T12:15:04.592Z,18.52
2018-01-08T12:17:32.937Z,17.55
2018-01-08T12:20:00.517Z,17.20
2018-01-08T12:22:29.143Z,17.27
2018-01-08T12:24:56.725Z,17.45
2018-01-08T12:27:24.305Z,17.98
2018-01-08T12:29:51.913Z,19.87
2018-01-08T12:32:19.498Z,17.52
2018-01-08T12:34:47.075Z,18.08
2018-01-08T12:37:14.690Z,17.40
2018-01-08T12:39:42.269Z,18.62
2018-01-08T12:42:09.866Z,17.65
2018-01-08T12:44:37.504Z,18.42
2018-01-08T12:47:05.077Z,17.08
2018-01-08T12:49:32.658Z,19.12
2018-01-08T12:52:01.065Z,17.15
2018-01-08T12:54:28.651Z,18.10
2018-01-08T12:56:56.233Z,18.20
2018-01-08T12:59:23.837Z,19.02
2018-01-08T13:01:51.422Z,18.45
2018-01-08T13:04:19.006Z,18.65
2018-01-08T13:06:46.614Z,19.45
2018-01-08T13:09:14.206Z,20.25
2018-01-08T13:11:41.825Z,19.42
2018-01-08T13:14:09.414Z,20.48
2018-01-08T13:16:37.001Z,20.50
2018-01-08T13:19:04.613Z,20.20
2018-01-08T13:21:32.186Z,20.17
2018-01-08T13:23:59.764Z,21.55
2018-01-08T13:26:27.422Z,21.52
2018-01-08T13:28:54.996Z,21.85
2018-01-08T13:31:22.580Z,20.60
2018-01-08T13:33:50.945Z,21.33
2018-01-08T13:36:18.522Z,20.83
2018-01-08T13:38:46.889Z,20.25
2018-01-08T13:41:15.235Z,22.20
2018-01-08T13:43:42.818Z,20.65
2018-01-08T13:46:10.441Z,21.08
2018-01-08T13:48:38.021Z,22.08
2018-01-08T13:51:05.618Z,24.00
2018-01-08T13:53:33.226Z,21.98
2018-01-08T13:56:00.804Z,22.20
2018-01-08T13:58:28.389Z,22.60
2018-01-08T14:00:56.956Z,22.62
2018-01-08T14:03:25.305Z,22.58
2018-01-08T14:05:52.885Z,23.52
2018-01-08T14:08:21.345Z,23.85
2018-01-08T14:10:48.926Z,23.87
2018-01-08T14:13:17.273Z,23.45
2018-01-08T14:15:44.917Z,21.45
2018-01-08T14:18:12.553Z,22.87
2018-01-08T14:20:40.133Z,21.00
2018-01-08T14:23:07.710Z,23.75
2018-01-08T14:25:35.317Z,22.67
2018-01-08T14:28:03.732Z,23.65
2018-01-08T14:30:31.325Z,23.20
2018-01-08T14:32:58.964Z,22.25
2018-01-08T14:35:26.542Z,22.08
2018-01-08T14:37:54.130Z,22.40
2018-01-08T14:40:22.500Z,20.42
2018-01-08T14:42:50.837Z,23.92
2018-01-08T14:45:18.417Z,22.52
2018-01-08T14:47:46.036Z,23.10
2018-01-08T14:50:13.622Z,21.48
2018-01-08T14:52:41.202Z,22.75
2018-01-08T14:55:09.580Z,22.58
2018-01-08T14:57:37.156Z,21.52
2018-01-08T15:00:05.501Z,23.40
2018-01-08T15:02:33.106Z,22.37
2018-01-08T15:05:00.690Z,22.37
2018-01-08T15:07:28.355Z,23.70
2018-01-08T15:09:55.961Z,24.48
2018-01-08T15:12:24.342Z,22.33
2018-01-08T15:14:52.046Z,52.55
2018-01-08T15:17:20.025Z,22.15
2018-01-08T15:19:47.601Z,22.62
2018-01-08T15:22:15.222Z,21.80
2018-01-08T15:24:42.806Z,28.87
2018-01-08T15:27:10.760Z,26.35
2018-01-08T15:29:38.421Z,21.62
2018-01-08T15:32:06.010Z,21.58
2018-01-08T15:34:33.646Z,20.85
2018-01-08T15:37:01.449Z,19.40
2018-01-08T15:39:29.829Z,21.20
2018-01-08T15:41:58.309Z,18.60
2018-01-08T15:44:26.785Z,19.42
2018-01-08T15:46:55.138Z,19.40
2018-01-08T15:49:22.761Z,17.40
2018-01-08T15:51:50.848Z,18.40
2018-01-08T15:54:18.613Z,20.30
2018-01-08T15:56:47.353Z,21.27
2018-01-08T15:59:15.706Z,19.12
2018-01-08T16:01:43.298Z,19.95
2018-01-08T16:04:10.922Z,21.17
2018-01-08T16:06:38.509Z,20.00
2018-01-08T16:09:06.858Z,19.02
2018-01-08T16:11:35.982Z,18.00
2018-01-08T16:14:03.576Z,17.45
2018-01-08T16:16:31.162Z,18.40
2018-01-08T16:18:58.957Z,19.30
2018-01-08T16:21:27.302Z,18.85
2018-01-08T16:23:54.937Z,19.80
2018-01-08T16:26:22.554Z,19.52
2018-01-08T16:28:50.910Z,20.17
2018-01-08T16:31:18.498Z,21.25
2018-01-08T16:33:46.117Z,17.62
2018-01-08T16:36:13.730Z,19.20
2018-01-08T16:38:41.310Z,18.80
2018-01-08T16:41:08.977Z,18.77
2018-01-08T16:43:36.552Z,17.25
2018-01-08T16:46:04.130Z,16.83
2018-01-08T16:48:31.760Z,17.35
2018-01-08T16:50:59.342Z,18.12
2018-01-08T16:53:26.965Z,20.08
2018-01-08T16:55:54.557Z,16.33
2018-01-08T16:58:22.145Z,16.62
2018-01-08T17:00:50.581Z,17.58
2018-01-08T17:03:18.170Z,18.62
2018-01-08T17:05:46.522Z,21.12
2018-01-08T17:08:14.129Z,18.30
2018-01-08T17:10:41.716Z,17.98
2018-01-08T17:13:09.346Z,18.58
2018-01-08T17:15:36.933Z,17.45
2018-01-08T17:18:04.519Z,17.27
2018-01-08T17:20:32.151Z,18.60
2018-01-08T17:22:59.742Z,17.87
2018-01-08T17:25:27.325Z,16.50
2018-01-08T17:27:55.720Z,16.85
2018-01-08T17:30:23.305Z,17.12
2018-01-08T17:32:50.975Z,17.62
2018-01-08T17:35:18.593Z,17.98
2018-01-08T17:37:46.389Z,16.48
2018-01-08T17:40:13.960Z,16.37
2018-01-08T17:42:41.760Z,16.95
2018-01-08T17:45:10.123Z,17.70
2018-01-08T17:47:38.058Z,18.00
2018-01-08T17:50:06.625Z,18.27
2018-01-08T17:52:34.202Z,18.83
2018-01-08T17:55:01.782Z,18.42
2018-01-08T17:57:29.619Z,17.80
2018-01-08T17:59:58.057Z,17.50
2018-01-08T18:02:26.405Z,16.27
2018-01-08T18:04:54.042Z,17.30
2018-01-08T18:07:21.632Z,16.95
2018-01-08T18:09:49.215Z,15.68
2018-01-08T18:12:17.585Z,15.90
2018-01-08T18:14:46.010Z,17.50
2018-01-08T18:17:13.624Z,16.35
2018-01-08T18:19:41.971Z,14.32
2018-01-08T18:22:09.553Z,15.93
2018-01-08T18:24:37.940Z,14.25
2018-01-08T18:27:05.529Z,13.77
2018-01-08T18:29:33.105Z,12.80
2018-01-08T18:32:00.725Z,12.82
2018-01-08T18:34:28.305Z,13.02
2018-01-08T18:36:55.886Z,11.50
2018-01-08T18:39:23.513Z,12.88
2018-01-08T18:41:51.098Z,12.13
2018-01-08T18:44:18.677Z,11.02
2018-01-08T18:46:46.325Z,11.00
2018-01-08T18:49:13.905Z,10.75
2018-01-08T18:51:42.994Z,10.43
2018-01-08T18:54:10.601Z,10.80
2018-01-08T18:56:38.208Z,10.95
2018-01-08T18:59:05.825Z,10.25
2018-01-08T19:01:33.401Z,11.27
2018-01-08T19:04:01.010Z,12.25
2018-01-08T19:06:29.414Z,10.55
2018-01-08T19:08:57.028Z,9.80
2018-01-08T19:11:24.965Z,9.48
2018-01-08T19:13:52.728Z,11.88
2018-01-08T19:16:20.352Z,11.65
2018-01-08T19:18:48.143Z,10.95
2018-01-08T19:21:15.812Z,10.73
2018-01-08T19:23:43.494Z,12.13
2018-01-08T19:26:11.337Z,10.50
2018-01-08T19:28:39.100Z,10.57
2018-01-08T19:31:06.783Z,9.38
2018-01-08T19:33:35.240Z,9.52
2018-01-08T19:36:02.920Z,9.65
2018-01-08T19:38:30.600Z,10.00
2018-01-08T19:40:59.143Z,9.50
2018-01-08T19:43:26.910Z,8.50
2018-01-08T19:45:54.670Z,8.90
2018-01-08T19:48:22.465Z,9.40
2018-01-08T19:50:50.196Z,9.00
2018-01-08T19:53:17.872Z,9.18
2018-01-08T19:55:45.721Z,9.10
2018-01-08T19:58:13.484Z,8.60
2018-01-08T20:00:41.246Z,9.02
2018-01-08T20:03:09.597Z,8.18
2018-01-08T20:05:37.386Z,8.70
2018-01-08T20:08:05.252Z,8.90
2018-01-08T20:10:32.889Z,8.98
2018-01-08T20:13:00.675Z,8.45
2018-01-08T20:15:28.560Z,9.07
2018-01-08T20:17:56.304Z,8.30
2018-01-08T20:20:24.066Z,9.15
2018-01-08T20:22:52.035Z,7.35
2018-01-08T20:25:19.797Z,8.85
2018-01-08T20:27:47.423Z,9.27
2018-01-08T20:30:15.118Z,9.27
2018-01-08T20:32:42.743Z,9.93
2018-01-08T20:35:10.382Z,8.80
2018-01-08T20:37:38.819Z,9.65
2018-01-08T20:40:07.091Z,10.23
2018-01-08T20:42:34.770Z,9.00
2018-01-08T20:45:02.515Z,9.60
2018-01-08T20:47:30.280Z,9.38
2018-01-08T20:49:58.040Z,10.10
2018-01-08T20:52:25.803Z,9.82
2018-01-08T20:54:53.486Z,10.10
2018-01-08T20:57:21.227Z,10.40
2018-01-08T20:59:48.871Z,10.15
2018-01-08T21:02:16.470Z,10.82
2018-01-08T21:04:44.048Z,10.15
2018-01-08T21:07:11.660Z,10.88
2018-01-08T21:09:39.244Z,11.12
2018-01-08T21:12:06.845Z,12.02
2018-01-08T21:14:35.189Z,10.80
2018-01-08T21:17:02.770Z,11.23
2018-01-08T21:19:31.160Z,12.35
2018-01-08T21:21:59.512Z,12.35
2018-01-08T21:24:27.094Z,11.43
2018-01-08T21:26:55.508Z,11.80
2018-01-08T21:29:23.088Z,12.13
2018-01-08T21:31:50.664Z,13.45
2018-01-08T21:34:18.297Z,12.30
2018-01-08T21:36:45.881Z,12.25
2018-01-08T21:39:13.462Z,12.75
2018-01-08T21:41:41.845Z,12.75
2018-01-08T21:44:09.426Z,13.70
2018-01-08T21:46:37.001Z,11.68
2018-01-08T21:49:04.617Z,11.85
2018-01-08T21:51:33.035Z,14.27
2018-01-08T21:54:00.622Z,14.55
2018-01-08T21:56:28.249Z,13.30
2018-01-08T21:58:55.830Z,14.02
2018-01-08T22:01:23.401Z,13.82
2018-01-08T22:03:51.006Z,13.55
2018-01-08T22:06:18.594Z,11.75
2018-01-08T22:08:46.174Z,13.57
2018-01-08T22:11:13.802Z,12.70
2018-01-08T22:13:41.381Z,13.13
2018-01-08T22:16:08.956Z,13.13
2018-01-08T22:18:36.562Z,13.10
2018-01-08T22:21:04.141Z,13.20
2018-01-08T22:23:31.734Z,13.38
2018-01-08T22:25:59.348Z,13.90
2018-01-08T22:28:26.930Z,14.10
2018-01-08T22:30:54.557Z,15.13
2018-01-08T22:33:22.141Z,14.35
2018-01-08T22:35:49.722Z,15.13
2018-01-08T22:38:17.349Z,14.85
2018-01-08T22:40:44.932Z,14.18
2018-01-08T22:43:12.514Z,13.75
2018-01-08T22:45:40.121Z,14.00
2018-01-08T22:48:07.702Z,13.43
2018-01-08T22:50:35.282Z,13.80
2018-01-08T22:53:02.886Z,13.65
2018-01-08T22:55:30.473Z,12.30
2018-01-08T22:57:58.050Z,13.43
2018-01-08T23:00:25.657Z,13.35
2018-01-08T23:02:53.238Z,14.15
2018-01-08T23:05:20.817Z,14.20
2018-01-08T23:07:48.421Z,14.13
2018-01-08T23:10:16.766Z,13.98
2018-01-08T23:12:44.377Z,14.50
2018-01-08T23:15:11.957Z,14.10
2018-01-08T23:17:39.542Z,13.30
2018-01-08T23:20:07.938Z,13.15
2018-01-08T23:22:35.512Z,12.75
2018-01-08T23:25:03.854Z,13.55
2018-01-08T23:27:31.457Z,13.82
2018-01-08T23:29:59.081Z,13.57
